»·PEaware :: N2RF KSAN-L70

N2RF :: KSAN-L70

FLIGHT INFORMATION

Flight Status: Arrived
Operator: Privately registered:
United States
More flights under this callsign
Pilot: Max W. (2591)
Aircraft: SOCATA TBM-900
(TBM9)
More flights by this aircraft type
Origin: KSAN San Diego Intl-Lindbergh
United States
Destination: L70 Agua Dulce
United States
More flights between these airports :: More routes between these airports
Route: +PEBLE6 SLI V459 KIMMO
File this flight plan on PilotEdge
Remarks:
Altitude:
(Current/Filed)
14,000ft
Speed:
(Current/Filed)
250kts
Departed: 13-Oct-19 05:50 PM
Arrived: 13-Oct-19 06:24 PM
Distance/Time
Traveled:
120nm/0:34
Distance/Time
To Go:
Arrived

Flight Plot

Page will automatically refresh every two minutes.

Flight plan parsing failed; only flown route is shown


Map Options




Map Legend


Flown Route
Filed Route
Departure Airport
Arrival Airport
Navaid (VOR, NDB)
Fix

Horizontal Profiles

Position Reports

Time Latitude Longitude Heading Altitude Ground
Speed
13-Oct-19 17:31 32.732014 -117.176220 194 25ft 0kts
13-Oct-19 17:32 32.732014 -117.176220 194 25ft 0kts
13-Oct-19 17:33 32.732014 -117.176220 194 25ft 0kts
13-Oct-19 17:34 32.732010 -117.176221 190 25ft 0kts
13-Oct-19 17:35 32.731947 -117.176284 232 25ft 1kts
13-Oct-19 17:36 32.731920 -117.176760 290 23ft 0kts
13-Oct-19 17:37 32.731957 -117.176872 292 22ft 0kts
13-Oct-19 17:38 32.732011 -117.176957 340 22ft 0kts
13-Oct-19 17:39 32.732059 -117.176952 26 22ft 0kts
13-Oct-19 17:40 32.732059 -117.176952 26 22ft 0kts
13-Oct-19 17:41 32.732059 -117.176952 26 22ft 0kts
13-Oct-19 17:42 32.732059 -117.176952 26 22ft 0kts
13-Oct-19 17:43 32.732059 -117.176952 26 22ft 0kts
13-Oct-19 17:44 32.732059 -117.176952 26 22ft 0kts
13-Oct-19 17:45 32.731740 -117.176505 167 23ft 10kts
13-Oct-19 17:46 32.730966 -117.175521 139 25ft 0kts
13-Oct-19 17:47 32.730966 -117.175521 139 25ft 0kts
13-Oct-19 17:48 32.730318 -117.175173 166 23ft 14kts
13-Oct-19 17:49 32.737471 -117.205543 288 1375ft 106kts
13-Oct-19 17:50 32.757015 -117.239124 302 3924ft 134kts
13-Oct-19 17:51 32.778385 -117.275987 301 6570ft 141kts
13-Oct-19 17:52 32.800873 -117.314946 300 8955ft 147kts
13-Oct-19 17:53 32.824601 -117.356083 299 11360ft 156kts
13-Oct-19 17:54 32.849568 -117.399423 298 13891ft 179kts
13-Oct-19 17:55 32.885724 -117.461684 307 13877ft 261kts
13-Oct-19 17:56 32.951430 -117.508760 325 13879ft 280kts
13-Oct-19 17:57 33.007677 -117.569640 304 13881ft 277kts
13-Oct-19 17:58 33.055335 -117.642103 304 13999ft 277kts
13-Oct-19 17:59 33.101636 -117.712647 304 14003ft 282kts
13-Oct-19 18:00 33.151659 -117.789529 304 13998ft 284kts
13-Oct-19 18:01 33.211997 -117.847142 341 14009ft 293kts
13-Oct-19 18:02 33.290197 -117.875281 340 14001ft 293kts
13-Oct-19 18:03 33.368737 -117.903722 341 13993ft 294kts
13-Oct-19 18:05 33.447021 -117.932127 341 13982ft 294kts
13-Oct-19 18:06 33.521612 -117.959242 340 13999ft 293kts
13-Oct-19 18:07 33.601622 -117.988409 341 13211ft 313kts
13-Oct-19 18:08 33.685791 -118.019110 341 12039ft 303kts
13-Oct-19 18:09 33.763266 -118.047417 341 12049ft 280kts
13-Oct-19 18:10 33.834355 -118.084038 332 12027ft 276kts
13-Oct-19 18:11 33.905086 -118.124716 332 11500ft 289kts
13-Oct-19 18:12 33.978524 -118.167015 332 10518ft 294kts
13-Oct-19 18:13 34.051732 -118.209256 332 9972ft 282kts
13-Oct-19 18:14 34.118136 -118.247642 332 9966ft 253kts
13-Oct-19 18:15 34.185610 -118.271978 352 9492ft 257kts
13-Oct-19 18:16 34.257014 -118.282996 352 8485ft 258kts
13-Oct-19 18:17 34.327993 -118.294510 352 7499ft 257kts
13-Oct-19 18:18 34.398380 -118.306739 352 6690ft 253kts
13-Oct-19 18:19 34.454042 -118.315035 0 7279ft 78kts
13-Oct-19 18:20 34.479258 -118.313018 8 6586ft 80kts
13-Oct-19 18:21 34.484033 -118.325706 201 5598ft 92kts
13-Oct-19 18:22 34.460702 -118.332628 183 7035ft 99kts
13-Oct-19 18:22 34.479360 -118.336490 38 4268ft 173kts
13-Oct-19 18:24 34.503440 -118.314077 148 2662ft 0kts
13-Oct-19 18:25 34.503441 -118.314078 150 2662ft 0kts
13-Oct-19 18:26 34.503441 -118.314078 152 2662ft 0kts
13-Oct-19 18:26 34.503449 -118.314083 154 2663ft 0kts

Navigation Log

Ident Type
Flight plan parsing failed, navigation log unavailable